Quincy, IL (62301)

8:09 PM CDT on April 30, 2017 (GMT -0500)
Tri-State Storm Chasers - WL#1 | | Change Station

Elev 659 ft 39.93 °N, 91.37 °W | Updated 4 seconds ago

Overcast
Overcast
55.7 °F
Feels Like 55.7 °F
N
0.0
Wind Variable Wind from SW

Today
High -- | Low -- °F
--% Chance of Precip.
Yesterday
High -- | Low -- °F
Precip. -- in
Pressure 29.48 in
Visibility 10.0 miles
Clouds Few 4000 ft
Scattered Clouds 6000 ft
Overcast 9000 ft
Dew Point 54 °F
Humidity 96%
Rainfall 0.85 in
Snow Depth Not available.
6:06 AM 7:59 PM
Waxing Crescent, 27% visible
METAR KUIN 010054Z AUTO 00000KT 10SM -RA FEW040 SCT060 OVC090 14/13 A2948 RMK AO2 WSHFT 2341 TSE21 SLP981 P0029 T01390128
Pressure 29.48 in
Visibility 10.0 miles
Clouds Few 4000 ft
Scattered Clouds 6000 ft
Overcast 9000 ft
Dew Point 54 °F
Humidity 96%
Rainfall 0.85 in
Snow Depth Not available.
6:06 AM 7:59 PM
Waxing Crescent, 27% visible
METAR KUIN 010054Z AUTO 00000KT 10SM -RA FEW040 SCT060 OVC090 14/13 A2948 RMK AO2 WSHFT 2341 TSE21 SLP981 P0029 T01390128

Get Severe Weather Alerts

Thanks for signing up!

Be on the lookout for a verification email in your inbox.

You'll start receiving the daily forecast at 8 AM.

×

10-Day Weather Forecast

Almanac

Astronomy

Apr. 30, 2017 Rise Set
Actual Time
Civil Twilight
Nautical Twilight
Astronomical Twilight
Moon
Length of Visible Light
Length of Day
Tomorrow will be .
, % of the Moon is Illuminated

Today's Extremes

State Highs State Lows

Community

WunderPhotos

WunderBlog® & News

Nearby

Air Quality

  Air Quality AQ Index Pollutant
Not available.

Snow Depth

Station Depth Elevation

Earthquake Activity

City Distance Mag. Time & Date
Minimum magnitude displayed is 2.5.

Coastal Water Temperatures

Place Temperature

Stations

Nearby Weather Stations

Station Location Temp. Windchill Dew Point Humidity Wind Precip. Elev Updated Type
                   

Watches & Warnings

There are currently no watches in effect.